sensor_id;sensor_type;location;lat;lon;timestamp;P1;durP1;ratioP1;P2;durP2;ratioP2
17147;SDS011;8689;47.364;8.796;2024-01-27T09:33:29;2.13;;;1.93;;
17147;SDS011;8689;47.364;8.796;2024-01-27T09:36:12;4.73;;;1.93;;
17147;SDS011;8689;47.364;8.796;2024-01-27T09:38:55;3.30;;;2.20;;
17147;SDS011;8689;47.364;8.796;2024-01-27T09:41:24;2.03;;;1.50;;
17147;SDS011;8689;47.364;8.796;2024-01-27T09:44:01;5.17;;;1.67;;
17147;SDS011;8689;47.364;8.796;2024-01-27T09:49:39;2.63;;;2.13;;
17147;SDS011;8689;47.364;8.796;2024-01-27T09:52:08;1.53;;;1.40;;
17147;SDS011;8689;47.364;8.796;2024-01-27T09:54:40;2.47;;;1.90;;
17147;SDS011;8689;47.364;8.796;2024-01-27T09:57:22;2.40;;;2.20;;
17147;SDS011;8689;47.364;8.796;2024-01-27T09:59:50;3.27;;;2.60;;
17147;SDS011;8689;47.364;8.796;2024-01-27T10:02:23;5.87;;;3.27;;
17147;SDS011;8689;47.364;8.796;2024-01-27T10:04:53;3.93;;;3.30;;
17147;SDS011;8689;47.364;8.796;2024-01-27T10:07:21;5.83;;;3.37;;
17147;SDS011;8689;47.364;8.796;2024-01-27T10:09:49;4.23;;;3.77;;
17147;SDS011;8689;47.364;8.796;2024-01-27T10:12:17;4.13;;;3.83;;
17147;SDS011;8689;47.364;8.796;2024-01-27T10:14:47;3.97;;;3.67;;
17147;SDS011;8689;47.364;8.796;2024-01-27T10:17:20;4.63;;;4.07;;
17147;SDS011;8689;47.364;8.796;2024-01-27T10:20:00;5.63;;;4.20;;
17147;SDS011;8689;47.364;8.796;2024-01-27T10:22:28;5.50;;;4.73;;
17147;SDS011;8689;47.364;8.796;2024-01-27T10:24:56;6.10;;;4.87;;
17147;SDS011;8689;47.364;8.796;2024-01-27T10:27:23;8.13;;;4.73;;
17147;SDS011;8689;47.364;8.796;2024-01-27T10:29:52;4.93;;;4.60;;
17147;SDS011;8689;47.364;8.796;2024-01-27T10:32:20;5.33;;;4.83;;
17147;SDS011;8689;47.364;8.796;2024-01-27T10:37:37;5.03;;;4.63;;
17147;SDS011;8689;47.364;8.796;2024-01-27T10:40:05;5.60;;;4.80;;
17147;SDS011;8689;47.364;8.796;2024-01-27T10:42:35;4.57;;;4.20;;
17147;SDS011;8689;47.364;8.796;2024-01-27T10:45:14;4.60;;;4.27;;
17147;SDS011;8689;47.364;8.796;2024-01-27T10:48:06;6.70;;;4.60;;
17147;SDS011;8689;47.364;8.796;2024-01-27T10:54:24;8.90;;;4.50;;
17147;SDS011;8689;47.364;8.796;2024-01-27T10:57:12;7.70;;;5.33;;
17147;SDS011;8689;47.364;8.796;2024-01-27T11:00:04;5.10;;;4.60;;
17147;SDS011;8689;47.364;8.796;2024-01-27T11:02:39;5.23;;;4.83;;
17147;SDS011;8689;47.364;8.796;2024-01-27T11:05:11;4.37;;;3.80;;
17147;SDS011;8689;47.364;8.796;2024-01-27T11:07:44;4.43;;;3.70;;
17147;SDS011;8689;47.364;8.796;2024-01-27T11:10:28;4.93;;;4.00;;
17147;SDS011;8689;47.364;8.796;2024-01-27T11:13:16;3.47;;;3.17;;
17147;SDS011;8689;47.364;8.796;2024-01-27T11:15:57;4.27;;;3.40;;
17147;SDS011;8689;47.364;8.796;2024-01-27T11:18:25;3.40;;;3.10;;
17147;SDS011;8689;47.364;8.796;2024-01-27T11:20:52;4.80;;;3.97;;
17147;SDS011;8689;47.364;8.796;2024-01-27T11:23:30;4.73;;;3.67;;
17147;SDS011;8689;47.364;8.796;2024-01-27T11:26:19;4.07;;;3.67;;
17147;SDS011;8689;47.364;8.796;2024-01-27T11:28:53;3.70;;;3.40;;
17147;SDS011;8689;47.364;8.796;2024-01-27T11:34:27;3.63;;;3.23;;
17147;SDS011;8689;47.364;8.796;2024-01-27T11:36:54;3.43;;;3.13;;
17147;SDS011;8689;47.364;8.796;2024-01-27T11:39:27;7.10;;;3.67;;
17147;SDS011;8689;47.364;8.796;2024-01-27T11:42:04;3.40;;;3.10;;
17147;SDS011;8689;47.364;8.796;2024-01-27T11:44:35;3.87;;;3.20;;
17147;SDS011;8689;47.364;8.796;2024-01-27T11:47:00;4.33;;;3.40;;
17147;SDS011;8689;47.364;8.796;2024-01-27T11:49:37;5.07;;;3.47;;
17147;SDS011;8689;47.364;8.796;2024-01-27T11:52:05;4.47;;;2.53;;
17147;SDS011;8689;47.364;8.796;2024-01-27T11:54:34;3.30;;;2.67;;
17147;SDS011;8689;47.364;8.796;2024-01-27T11:57:03;3.20;;;2.93;;
17147;SDS011;8689;47.364;8.796;2024-01-27T11:59:33;4.70;;;3.13;;
17147;SDS011;8689;47.364;8.796;2024-01-27T12:02:00;2.67;;;2.47;;
17147;SDS011;8689;47.364;8.796;2024-01-27T12:04:27;2.97;;;2.67;;
17147;SDS011;8689;47.364;8.796;2024-01-27T12:06:56;3.20;;;2.90;;
17147;SDS011;8689;47.364;8.796;2024-01-27T12:09:23;4.17;;;3.63;;
17147;SDS011;8689;47.364;8.796;2024-01-27T12:11:53;4.17;;;3.10;;
17147;SDS011;8689;47.364;8.796;2024-01-27T12:14:20;4.43;;;2.80;;
17147;SDS011;8689;47.364;8.796;2024-01-27T12:16:50;3.20;;;2.80;;
17147;SDS011;8689;47.364;8.796;2024-01-27T12:19:20;5.27;;;3.27;;
17147;SDS011;8689;47.364;8.796;2024-01-27T12:21:48;3.70;;;3.07;;
17147;SDS011;8689;47.364;8.796;2024-01-27T12:24:15;4.43;;;2.97;;
17147;SDS011;8689;47.364;8.796;2024-01-27T12:26:42;4.60;;;3.30;;
17147;SDS011;8689;47.364;8.796;2024-01-27T12:29:12;3.10;;;2.80;;
17147;SDS011;8689;47.364;8.796;2024-01-27T12:31:39;2.97;;;2.20;;
17147;SDS011;8689;47.364;8.796;2024-01-27T12:34:07;6.50;;;3.30;;
17147;SDS011;8689;47.364;8.796;2024-01-27T12:36:39;6.47;;;2.93;;
17147;SDS011;8689;47.364;8.796;2024-01-27T12:39:08;5.27;;;3.13;;
17147;SDS011;8689;47.364;8.796;2024-01-27T12:41:39;4.17;;;3.40;;
17147;SDS011;8689;47.364;8.796;2024-01-27T12:44:09;8.13;;;4.60;;
17147;SDS011;8689;47.364;8.796;2024-01-27T12:46:40;5.67;;;3.80;;
17147;SDS011;8689;47.364;8.796;2024-01-27T12:49:07;9.03;;;4.17;;
17147;SDS011;8689;47.364;8.796;2024-01-27T12:51:35;4.50;;;4.00;;
17147;SDS011;8689;47.364;8.796;2024-01-27T12:54:02;5.63;;;4.60;;
17147;SDS011;8689;47.364;8.796;2024-01-27T12:56:30;7.03;;;4.23;;
17147;SDS011;8689;47.364;8.796;2024-01-27T12:59:00;4.43;;;4.03;;
17147;SDS011;8689;47.364;8.796;2024-01-27T13:01:27;8.70;;;4.30;;
17147;SDS011;8689;47.364;8.796;2024-01-27T13:03:56;6.70;;;3.83;;
17147;SDS011;8689;47.364;8.796;2024-01-27T13:06:23;6.00;;;4.37;;
17147;SDS011;8689;47.364;8.796;2024-01-27T13:08:52;6.77;;;4.50;;
17147;SDS011;8689;47.364;8.796;2024-01-27T13:11:20;7.63;;;5.37;;
17147;SDS011;8689;47.364;8.796;2024-01-27T13:13:47;5.90;;;5.40;;
17147;SDS011;8689;47.364;8.796;2024-01-27T13:16:15;6.80;;;5.40;;
17147;SDS011;8689;47.364;8.796;2024-01-27T13:18:42;6.77;;;6.13;;
17147;SDS011;8689;47.364;8.796;2024-01-27T13:21:13;9.37;;;5.67;;
17147;SDS011;8689;47.364;8.796;2024-01-27T13:23:40;7.67;;;5.80;;
17147;SDS011;8689;47.364;8.796;2024-01-27T13:26:07;7.17;;;6.13;;
17147;SDS011;8689;47.364;8.796;2024-01-27T13:28:34;10.27;;;6.77;;
17147;SDS011;8689;47.364;8.796;2024-01-27T13:31:02;6.87;;;6.10;;
17147;SDS011;8689;47.364;8.796;2024-01-27T13:33:30;7.87;;;6.67;;
17147;SDS011;8689;47.364;8.796;2024-01-27T13:36:00;10.07;;;6.27;;
17147;SDS011;8689;47.364;8.796;2024-01-27T13:38:29;6.60;;;5.87;;
17147;SDS011;8689;47.364;8.796;2024-01-27T13:40:57;6.77;;;6.17;;
17147;SDS011;8689;47.364;8.796;2024-01-27T13:43:24;6.87;;;6.07;;
17147;SDS011;8689;47.364;8.796;2024-01-27T13:45:51;6.13;;;5.63;;
17147;SDS011;8689;47.364;8.796;2024-01-27T13:48:19;7.20;;;5.73;;
17147;SDS011;8689;47.364;8.796;2024-01-27T13:50:47;7.67;;;6.10;;
17147;SDS011;8689;47.364;8.796;2024-01-27T13:53:14;6.20;;;5.70;;
17147;SDS011;8689;47.364;8.796;2024-01-27T13:55:43;6.33;;;5.83;;
17147;SDS011;8689;47.364;8.796;2024-01-27T13:58:10;9.17;;;5.97;;
17147;SDS011;8689;47.364;8.796;2024-01-27T14:00:37;10.97;;;9.77;;
17147;SDS011;8689;47.364;8.796;2024-01-27T14:03:05;10.47;;;5.37;;
17147;SDS011;8689;47.364;8.796;2024-01-27T14:05:32;6.87;;;6.17;;
17147;SDS011;8689;47.364;8.796;2024-01-27T14:07:59;6.87;;;5.80;;
17147;SDS011;8689;47.364;8.796;2024-01-27T14:10:27;6.57;;;5.43;;
17147;SDS011;8689;47.364;8.796;2024-01-27T14:12:55;8.13;;;5.53;;
17147;SDS011;8689;47.364;8.796;2024-01-27T14:15:22;6.57;;;6.03;;
17147;SDS011;8689;47.364;8.796;2024-01-27T14:17:53;5.13;;;4.77;;
17147;SDS011;8689;47.364;8.796;2024-01-27T14:20:20;7.50;;;5.37;;
17147;SDS011;8689;47.364;8.796;2024-01-27T14:22:47;90.20;;;10.87;;
17147;SDS011;8689;47.364;8.796;2024-01-27T14:25:15;7.20;;;5.60;;
17147;SDS011;8689;47.364;8.796;2024-01-27T14:27:42;5.90;;;5.37;;
17147;SDS011;8689;47.364;8.796;2024-01-27T14:30:13;12.07;;;4.93;;
17147;SDS011;8689;47.364;8.796;2024-01-27T14:32:41;6.03;;;4.97;;
17147;SDS011;8689;47.364;8.796;2024-01-27T14:35:09;5.80;;;5.27;;
17147;SDS011;8689;47.364;8.796;2024-01-27T14:37:36;8.93;;;5.90;;
17147;SDS011;8689;47.364;8.796;2024-01-27T14:40:04;7.17;;;5.33;;
17147;SDS011;8689;47.364;8.796;2024-01-27T14:42:33;5.07;;;4.67;;
17147;SDS011;8689;47.364;8.796;2024-01-27T14:45:01;7.10;;;5.77;;
17147;SDS011;8689;47.364;8.796;2024-01-27T14:47:31;5.83;;;5.33;;
17147;SDS011;8689;47.364;8.796;2024-01-27T14:49:59;6.00;;;5.43;;
17147;SDS011;8689;47.364;8.796;2024-01-27T14:52:27;5.50;;;5.10;;
17147;SDS011;8689;47.364;8.796;2024-01-27T14:54:54;6.63;;;5.57;;
17147;SDS011;8689;47.364;8.796;2024-01-27T14:57:21;6.23;;;5.30;;
17147;SDS011;8689;47.364;8.796;2024-01-27T14:59:49;7.13;;;5.27;;
17147;SDS011;8689;47.364;8.796;2024-01-27T15:02:17;6.00;;;5.43;;
17147;SDS011;8689;47.364;8.796;2024-01-27T15:04:46;6.20;;;5.70;;
17147;SDS011;8689;47.364;8.796;2024-01-27T15:07:13;6.43;;;5.90;;
17147;SDS011;8689;47.364;8.796;2024-01-27T15:09:42;5.83;;;5.23;;
17147;SDS011;8689;47.364;8.796;2024-01-27T15:12:11;7.33;;;5.40;;
17147;SDS011;8689;47.364;8.796;2024-01-27T15:14:38;6.40;;;5.80;;
17147;SDS011;8689;47.364;8.796;2024-01-27T15:17:06;7.00;;;6.40;;
17147;SDS011;8689;47.364;8.796;2024-01-27T15:19:34;6.13;;;5.63;;
17147;SDS011;8689;47.364;8.796;2024-01-27T15:22:04;7.40;;;6.03;;
17147;SDS011;8689;47.364;8.796;2024-01-27T15:24:31;9.40;;;6.07;;
17147;SDS011;8689;47.364;8.796;2024-01-27T15:27:01;6.23;;;5.67;;
17147;SDS011;8689;47.364;8.796;2024-01-27T15:29:29;9.77;;;6.67;;
17147;SDS011;8689;47.364;8.796;2024-01-27T15:31:56;7.20;;;6.20;;
17147;SDS011;8689;47.364;8.796;2024-01-27T15:34:24;6.97;;;6.30;;
17147;SDS011;8689;47.364;8.796;2024-01-27T15:36:51;6.53;;;5.93;;
17147;SDS011;8689;47.364;8.796;2024-01-27T15:39:21;7.73;;;6.63;;
17147;SDS011;8689;47.364;8.796;2024-01-27T15:41:48;8.97;;;6.00;;
17147;SDS011;8689;47.364;8.796;2024-01-27T15:44:16;9.87;;;6.20;;
17147;SDS011;8689;47.364;8.796;2024-01-27T15:46:43;6.37;;;5.73;;
17147;SDS011;8689;47.364;8.796;2024-01-27T15:49:11;8.60;;;5.40;;
17147;SDS011;8689;47.364;8.796;2024-01-27T15:51:38;7.93;;;6.50;;
17147;SDS011;8689;47.364;8.796;2024-01-27T15:54:08;9.60;;;6.80;;
17147;SDS011;8689;47.364;8.796;2024-01-27T15:56:37;7.20;;;5.70;;
17147;SDS011;8689;47.364;8.796;2024-01-27T15:59:05;7.60;;;5.97;;
17147;SDS011;8689;47.364;8.796;2024-01-27T16:01:33;10.73;;;6.33;;
17147;SDS011;8689;47.364;8.796;2024-01-27T16:04:01;6.47;;;5.47;;
17147;SDS011;8689;47.364;8.796;2024-01-27T16:06:28;6.93;;;6.23;;
17147;SDS011;8689;47.364;8.796;2024-01-27T16:08:55;6.73;;;6.13;;
17147;SDS011;8689;47.364;8.796;2024-01-27T16:11:23;6.17;;;5.57;;
17147;SDS011;8689;47.364;8.796;2024-01-27T16:13:52;6.83;;;5.67;;
17147;SDS011;8689;47.364;8.796;2024-01-27T16:16:19;7.30;;;5.80;;
17147;SDS011;8689;47.364;8.796;2024-01-27T16:18:49;6.07;;;5.30;;
17147;SDS011;8689;47.364;8.796;2024-01-27T16:21:16;6.07;;;5.47;;
17147;SDS011;8689;47.364;8.796;2024-01-27T16:23:44;6.77;;;5.30;;
17147;SDS011;8689;47.364;8.796;2024-01-27T16:26:12;10.33;;;5.90;;
17147;SDS011;8689;47.364;8.796;2024-01-27T16:28:40;6.37;;;5.77;;
17147;SDS011;8689;47.364;8.796;2024-01-27T16:31:09;5.97;;;5.40;;
17147;SDS011;8689;47.364;8.796;2024-01-27T16:33:36;7.47;;;5.90;;
17147;SDS011;8689;47.364;8.796;2024-01-27T16:36:04;5.33;;;4.83;;
17147;SDS011;8689;47.364;8.796;2024-01-27T16:38:32;6.03;;;5.30;;
17147;SDS011;8689;47.364;8.796;2024-01-27T16:41:00;7.00;;;5.23;;
17147;SDS011;8689;47.364;8.796;2024-01-27T16:43:27;5.33;;;4.60;;
17147;SDS011;8689;47.364;8.796;2024-01-27T16:45:55;4.67;;;4.23;;
17147;SDS011;8689;47.364;8.796;2024-01-27T16:48:25;5.70;;;5.20;;
17147;SDS011;8689;47.364;8.796;2024-01-27T16:50:52;6.10;;;4.63;;
17147;SDS011;8689;47.364;8.796;2024-01-27T16:53:21;7.37;;;5.57;;
17147;SDS011;8689;47.364;8.796;2024-01-27T16:55:48;5.07;;;4.57;;
17147;SDS011;8689;47.364;8.796;2024-01-27T16:58:16;6.27;;;4.83;;
17147;SDS011;8689;47.364;8.796;2024-01-27T17:00:45;4.57;;;4.17;;
17147;SDS011;8689;47.364;8.796;2024-01-27T17:03:12;6.20;;;4.63;;
17147;SDS011;8689;47.364;8.796;2024-01-27T17:05:42;8.17;;;4.63;;
17147;SDS011;8689;47.364;8.796;2024-01-27T17:08:09;5.67;;;5.07;;
17147;SDS011;8689;47.364;8.796;2024-01-27T17:10:36;7.03;;;5.07;;
17147;SDS011;8689;47.364;8.796;2024-01-27T17:13:04;5.03;;;4.53;;
17147;SDS011;8689;47.364;8.796;2024-01-27T17:15:32;4.13;;;3.73;;
17147;SDS011;8689;47.364;8.796;2024-01-27T17:17:59;6.70;;;4.60;;
17147;SDS011;8689;47.364;8.796;2024-01-27T17:20:27;6.70;;;4.60;;
17147;SDS011;8689;47.364;8.796;2024-01-27T17:22:55;6.60;;;4.90;;
17147;SDS011;8689;47.364;8.796;2024-01-27T17:25:22;5.30;;;4.17;;
17147;SDS011;8689;47.364;8.796;2024-01-27T17:27:50;5.30;;;4.47;;
17147;SDS011;8689;47.364;8.796;2024-01-27T17:30:17;5.27;;;4.77;;
17147;SDS011;8689;47.364;8.796;2024-01-27T17:32:44;5.30;;;4.80;;
17147;SDS011;8689;47.364;8.796;2024-01-27T17:35:12;6.20;;;4.67;;
17147;SDS011;8689;47.364;8.796;2024-01-27T17:37:39;6.50;;;4.77;;
17147;SDS011;8689;47.364;8.796;2024-01-27T17:40:10;6.17;;;5.17;;
17147;SDS011;8689;47.364;8.796;2024-01-27T17:42:38;6.60;;;4.87;;
17147;SDS011;8689;47.364;8.796;2024-01-27T17:45:06;5.33;;;4.70;;
17147;SDS011;8689;47.364;8.796;2024-01-27T17:47:33;6.47;;;5.07;;
17147;SDS011;8689;47.364;8.796;2024-01-27T17:50:05;5.53;;;4.80;;
17147;SDS011;8689;47.364;8.796;2024-01-27T17:52:39;5.90;;;4.93;;
17147;SDS011;8689;47.364;8.796;2024-01-27T17:55:07;6.30;;;4.60;;
17147;SDS011;8689;47.364;8.796;2024-01-27T17:57:36;5.43;;;4.63;;
17147;SDS011;8689;47.364;8.796;2024-01-27T18:00:04;7.93;;;5.13;;
17147;SDS011;8689;47.364;8.796;2024-01-27T18:02:35;6.37;;;5.00;;
17147;SDS011;8689;47.364;8.796;2024-01-27T18:05:02;6.47;;;4.83;;
17147;SDS011;8689;47.364;8.796;2024-01-27T18:07:31;5.70;;;4.93;;
17147;SDS011;8689;47.364;8.796;2024-01-27T18:09:59;7.47;;;5.10;;
17147;SDS011;8689;47.364;8.796;2024-01-27T18:12:26;6.33;;;4.93;;
17147;SDS011;8689;47.364;8.796;2024-01-27T18:14:55;8.90;;;5.20;;
17147;SDS011;8689;47.364;8.796;2024-01-27T18:17:23;5.90;;;4.53;;
17147;SDS011;8689;47.364;8.796;2024-01-27T18:19:51;6.93;;;5.07;;
17147;SDS011;8689;47.364;8.796;2024-01-27T18:22:18;5.37;;;4.30;;
17147;SDS011;8689;47.364;8.796;2024-01-27T18:24:45;6.20;;;4.90;;
17147;SDS011;8689;47.364;8.796;2024-01-27T18:27:14;7.17;;;4.97;;
17147;SDS011;8689;47.364;8.796;2024-01-27T18:29:43;6.43;;;4.80;;
17147;SDS011;8689;47.364;8.796;2024-01-27T18:32:12;7.87;;;5.30;;
17147;SDS011;8689;47.364;8.796;2024-01-27T18:34:39;5.77;;;4.97;;
17147;SDS011;8689;47.364;8.796;2024-01-27T18:37:07;5.77;;;4.87;;
17147;SDS011;8689;47.364;8.796;2024-01-27T18:39:34;5.67;;;4.67;;
17147;SDS011;8689;47.364;8.796;2024-01-27T18:42:03;6.77;;;4.47;;
17147;SDS011;8689;47.364;8.796;2024-01-27T18:44:33;5.33;;;4.57;;
17147;SDS011;8689;47.364;8.796;2024-01-27T18:47:04;4.83;;;4.23;;
17147;SDS011;8689;47.364;8.796;2024-01-27T18:49:33;7.83;;;4.80;;
17147;SDS011;8689;47.364;8.796;2024-01-27T18:52:01;7.93;;;5.40;;
17147;SDS011;8689;47.364;8.796;2024-01-27T18:54:29;8.50;;;5.53;;
17147;SDS011;8689;47.364;8.796;2024-01-27T18:56:56;7.17;;;5.37;;
17147;SDS011;8689;47.364;8.796;2024-01-27T18:59:23;7.47;;;5.93;;
17147;SDS011;8689;47.364;8.796;2024-01-27T19:01:51;6.53;;;5.43;;
17147;SDS011;8689;47.364;8.796;2024-01-27T19:04:19;6.60;;;5.33;;
17147;SDS011;8689;47.364;8.796;2024-01-27T19:06:48;8.03;;;5.63;;
17147;SDS011;8689;47.364;8.796;2024-01-27T19:09:16;5.87;;;4.90;;
17147;SDS011;8689;47.364;8.796;2024-01-27T19:11:43;5.43;;;4.60;;
17147;SDS011;8689;47.364;8.796;2024-01-27T19:14:11;8.17;;;5.10;;
17147;SDS011;8689;47.364;8.796;2024-01-27T19:16:39;5.23;;;4.47;;
17147;SDS011;8689;47.364;8.796;2024-01-27T19:19:06;6.50;;;4.50;;
17147;SDS011;8689;47.364;8.796;2024-01-27T19:21:33;7.03;;;5.17;;
17147;SDS011;8689;47.364;8.796;2024-01-27T19:24:03;6.30;;;4.80;;
17147;SDS011;8689;47.364;8.796;2024-01-27T19:26:31;6.23;;;5.40;;
17147;SDS011;8689;47.364;8.796;2024-01-27T19:28:58;6.00;;;5.30;;
17147;SDS011;8689;47.364;8.796;2024-01-27T19:31:25;5.60;;;4.37;;
17147;SDS011;8689;47.364;8.796;2024-01-27T19:33:53;6.30;;;5.37;;
17147;SDS011;8689;47.364;8.796;2024-01-27T19:36:20;7.43;;;5.60;;
17147;SDS011;8689;47.364;8.796;2024-01-27T19:38:48;6.10;;;4.90;;
17147;SDS011;8689;47.364;8.796;2024-01-27T19:41:18;7.07;;;5.20;;
17147;SDS011;8689;47.364;8.796;2024-01-27T19:43:48;6.57;;;5.17;;
17147;SDS011;8689;47.364;8.796;2024-01-27T19:46:21;6.73;;;5.07;;
17147;SDS011;8689;47.364;8.796;2024-01-27T19:48:50;8.30;;;4.97;;
17147;SDS011;8689;47.364;8.796;2024-01-27T19:51:29;9.13;;;5.27;;
17147;SDS011;8689;47.364;8.796;2024-01-27T19:53:59;6.70;;;5.23;;
17147;SDS011;8689;47.364;8.796;2024-01-27T19:56:29;4.93;;;4.43;;
17147;SDS011;8689;47.364;8.796;2024-01-27T19:58:57;4.97;;;4.47;;
17147;SDS011;8689;47.364;8.796;2024-01-27T20:01:26;5.47;;;4.67;;
17147;SDS011;8689;47.364;8.796;2024-01-27T20:03:55;6.30;;;4.30;;
17147;SDS011;8689;47.364;8.796;2024-01-27T20:06:35;7.40;;;5.30;;
17147;SDS011;8689;47.364;8.796;2024-01-27T20:09:47;6.03;;;4.97;;
17147;SDS011;8689;47.364;8.796;2024-01-27T20:12:58;5.17;;;4.27;;
17147;SDS011;8689;47.364;8.796;2024-01-27T20:15:42;6.10;;;4.90;;
17147;SDS011;8689;47.364;8.796;2024-01-27T20:18:09;5.57;;;4.63;;
17147;SDS011;8689;47.364;8.796;2024-01-27T20:20:37;6.90;;;5.23;;
17147;SDS011;8689;47.364;8.796;2024-01-27T20:23:04;6.27;;;4.47;;
17147;SDS011;8689;47.364;8.796;2024-01-27T20:25:32;6.73;;;4.97;;
17147;SDS011;8689;47.364;8.796;2024-01-27T20:28:01;8.27;;;5.60;;
17147;SDS011;8689;47.364;8.796;2024-01-27T20:30:28;6.97;;;5.57;;
17147;SDS011;8689;47.364;8.796;2024-01-27T20:32:55;7.63;;;4.80;;
17147;SDS011;8689;47.364;8.796;2024-01-27T20:35:23;6.20;;;5.23;;
17147;SDS011;8689;47.364;8.796;2024-01-27T20:37:51;5.87;;;4.97;;
17147;SDS011;8689;47.364;8.796;2024-01-27T20:40:20;6.70;;;5.70;;
17147;SDS011;8689;47.364;8.796;2024-01-27T20:42:48;7.10;;;5.67;;
17147;SDS011;8689;47.364;8.796;2024-01-27T20:45:18;6.57;;;5.30;;
17147;SDS011;8689;47.364;8.796;2024-01-27T20:47:46;5.93;;;4.73;;
17147;SDS011;8689;47.364;8.796;2024-01-27T20:50:14;5.03;;;4.07;;
17147;SDS011;8689;47.364;8.796;2024-01-27T20:52:42;6.23;;;5.03;;
17147;SDS011;8689;47.364;8.796;2024-01-27T20:55:09;8.00;;;4.67;;
17147;SDS011;8689;47.364;8.796;2024-01-27T20:57:36;7.47;;;4.70;;
17147;SDS011;8689;47.364;8.796;2024-01-27T21:00:04;7.77;;;5.07;;
17147;SDS011;8689;47.364;8.796;2024-01-27T21:02:33;5.50;;;4.73;;
17147;SDS011;8689;47.364;8.796;2024-01-27T21:05:01;5.70;;;4.63;;
17147;SDS011;8689;47.364;8.796;2024-01-27T21:07:28;6.37;;;4.90;;
17147;SDS011;8689;47.364;8.796;2024-01-27T21:09:56;5.53;;;4.50;;
17147;SDS011;8689;47.364;8.796;2024-01-27T21:12:23;5.90;;;4.10;;
17147;SDS011;8689;47.364;8.796;2024-01-27T21:14:50;5.57;;;4.63;;
17147;SDS011;8689;47.364;8.796;2024-01-27T21:17:17;6.13;;;4.47;;
17147;SDS011;8689;47.364;8.796;2024-01-27T21:19:47;7.63;;;4.60;;
17147;SDS011;8689;47.364;8.796;2024-01-27T21:22:15;5.90;;;4.70;;
17147;SDS011;8689;47.364;8.796;2024-01-27T21:24:43;6.00;;;3.97;;
17147;SDS011;8689;47.364;8.796;2024-01-27T21:27:10;5.27;;;4.07;;
17147;SDS011;8689;47.364;8.796;2024-01-27T21:29:37;6.23;;;4.33;;
17147;SDS011;8689;47.364;8.796;2024-01-27T21:32:04;5.27;;;4.27;;
17147;SDS011;8689;47.364;8.796;2024-01-27T21:34:32;5.53;;;4.60;;
17147;SDS011;8689;47.364;8.796;2024-01-27T21:37:01;7.33;;;4.47;;
17147;SDS011;8689;47.364;8.796;2024-01-27T21:39:29;4.70;;;4.20;;
17147;SDS011;8689;47.364;8.796;2024-01-27T21:41:58;4.73;;;4.10;;
17147;SDS011;8689;47.364;8.796;2024-01-27T21:44:26;5.57;;;4.60;;
17147;SDS011;8689;47.364;8.796;2024-01-27T21:46:53;5.97;;;4.77;;
17147;SDS011;8689;47.364;8.796;2024-01-27T21:49:20;8.27;;;5.23;;
17147;SDS011;8689;47.364;8.796;2024-01-27T21:51:49;9.57;;;5.10;;
17147;SDS011;8689;47.364;8.796;2024-01-27T21:54:18;7.17;;;5.47;;
17147;SDS011;8689;47.364;8.796;2024-01-27T21:56:45;9.03;;;5.43;;
17147;SDS011;8689;47.364;8.796;2024-01-27T21:59:12;6.83;;;4.77;;
17147;SDS011;8689;47.364;8.796;2024-01-27T22:01:41;6.90;;;4.67;;
17147;SDS011;8689;47.364;8.796;2024-01-27T22:04:08;6.90;;;4.70;;
17147;SDS011;8689;47.364;8.796;2024-01-27T22:06:37;6.10;;;4.70;;
17147;SDS011;8689;47.364;8.796;2024-01-27T22:09:04;5.00;;;4.07;;
17147;SDS011;8689;47.364;8.796;2024-01-27T22:11:33;5.20;;;4.43;;
17147;SDS011;8689;47.364;8.796;2024-01-27T22:14:00;5.50;;;4.90;;
17147;SDS011;8689;47.364;8.796;2024-01-27T22:16:28;6.33;;;4.53;;
17147;SDS011;8689;47.364;8.796;2024-01-27T22:18:55;6.10;;;4.43;;
17147;SDS011;8689;47.364;8.796;2024-01-27T22:21:22;5.47;;;4.33;;
17147;SDS011;8689;47.364;8.796;2024-01-27T22:23:53;6.23;;;5.30;;
17147;SDS011;8689;47.364;8.796;2024-01-27T22:26:20;6.60;;;4.80;;
17147;SDS011;8689;47.364;8.796;2024-01-27T22:28:49;7.67;;;5.03;;
17147;SDS011;8689;47.364;8.796;2024-01-27T22:31:16;6.27;;;4.33;;
17147;SDS011;8689;47.364;8.796;2024-01-27T22:33:43;5.17;;;3.37;;
17147;SDS011;8689;47.364;8.796;2024-01-27T22:36:11;5.80;;;4.50;;
17147;SDS011;8689;47.364;8.796;2024-01-27T22:38:40;5.83;;;5.03;;
17147;SDS011;8689;47.364;8.796;2024-01-27T22:41:08;9.00;;;5.90;;
17147;SDS011;8689;47.364;8.796;2024-01-27T22:43:35;7.37;;;5.70;;
17147;SDS011;8689;47.364;8.796;2024-01-27T22:46:04;6.47;;;5.43;;
17147;SDS011;8689;47.364;8.796;2024-01-27T22:48:32;7.10;;;5.13;;
17147;SDS011;8689;47.364;8.796;2024-01-27T22:50:59;5.77;;;4.57;;
17147;SDS011;8689;47.364;8.796;2024-01-27T22:53:26;5.70;;;4.67;;
17147;SDS011;8689;47.364;8.796;2024-01-27T22:55:53;6.83;;;4.30;;
17147;SDS011;8689;47.364;8.796;2024-01-27T22:58:20;5.57;;;4.47;;
17147;SDS011;8689;47.364;8.796;2024-01-27T23:00:47;6.63;;;4.80;;
17147;SDS011;8689;47.364;8.796;2024-01-27T23:03:16;5.50;;;4.53;;
17147;SDS011;8689;47.364;8.796;2024-01-27T23:05:45;6.53;;;5.57;;
17147;SDS011;8689;47.364;8.796;2024-01-27T23:08:12;7.50;;;5.43;;
17147;SDS011;8689;47.364;8.796;2024-01-27T23:10:39;7.10;;;5.97;;
17147;SDS011;8689;47.364;8.796;2024-01-27T23:13:08;10.33;;;5.23;;
17147;SDS011;8689;47.364;8.796;2024-01-27T23:15:35;7.03;;;5.37;;
17147;SDS011;8689;47.364;8.796;2024-01-27T23:18:03;7.20;;;4.83;;
17147;SDS011;8689;47.364;8.796;2024-01-27T23:20:33;5.90;;;4.70;;
17147;SDS011;8689;47.364;8.796;2024-01-27T23:23:01;5.97;;;4.47;;
17147;SDS011;8689;47.364;8.796;2024-01-27T23:25:28;5.63;;;4.90;;
17147;SDS011;8689;47.364;8.796;2024-01-27T23:28:00;5.73;;;4.87;;
17147;SDS011;8689;47.364;8.796;2024-01-27T23:30:28;8.40;;;4.43;;
17147;SDS011;8689;47.364;8.796;2024-01-27T23:32:56;6.27;;;4.20;;
17147;SDS011;8689;47.364;8.796;2024-01-27T23:35:24;5.50;;;4.80;;
17147;SDS011;8689;47.364;8.796;2024-01-27T23:37:54;5.70;;;4.80;;
17147;SDS011;8689;47.364;8.796;2024-01-27T23:40:22;5.57;;;4.57;;
17147;SDS011;8689;47.364;8.796;2024-01-27T23:42:49;4.87;;;3.83;;
17147;SDS011;8689;47.364;8.796;2024-01-27T23:45:16;4.57;;;3.87;;
17147;SDS011;8689;47.364;8.796;2024-01-27T23:47:43;5.53;;;3.60;;
17147;SDS011;8689;47.364;8.796;2024-01-27T23:50:10;4.47;;;3.53;;
17147;SDS011;8689;47.364;8.796;2024-01-27T23:52:39;3.70;;;3.10;;
17147;SDS011;8689;47.364;8.796;2024-01-27T23:55:15;3.90;;;3.07;;
17147;SDS011;8689;47.364;8.796;2024-01-27T23:57:45;3.97;;;3.53;;
